Latest Weather Observations for Charleville

IDQ60801

Issued at 2:42 pm EST Monday 18 November 2019 (issued every 10 minutes, with the page automatically refreshed every 10 minutes)

About weather observations | Map of weather stations | Latest weather observations for QLD | Other Formats
Station Details ID: 044021 Name: CHARLEVILLE AERO Lat: -26.41 Lon: 146.26 Height: 301.6 m
Data from the previous 72 hours. | See also: Recent months at Charleville
Date/Time
EST
Temp
°C
App
Temp
°C
Dew
Point
°C
Rel
Hum
%
Delta-T
°C
Wind Press
QNH
hPa
Press
MSL
hPa
Rain since
9am
mm
Dir  Spd
km/h
Gust
km/h
Spd
kts
Gust
kts
18/02:30pm 33.3 27.8 -9.1 6 18.1 SSE 13 22 7 12 1013.7 1012.1 0.0
18/02:00pm 33.1 27.8 -7.3 7 17.7 SSW 13 22 7 12 1014.1 1012.5 0.0
18/01:30pm 32.0 26.5 -10.0 6 17.4 ESE 13 19 7 10 1014.8 1013.1 0.0
18/01:00pm 31.7 27.1 -8.3 7 17.0 S 9 24 5 13 1015.2 1013.5 0.0
18/12:30pm 31.5 26.1 -8.4 7 16.9 S 13 22 7 12 1015.5 1013.8 0.0
18/12:00pm 30.7 25.3 -9.0 7 16.5 S 13 26 7 14 1015.9 1014.2 0.0
18/11:30am 30.8 25.1 -7.2 8 16.4 SE 15 28 8 15 1016.4 1014.7 0.0
18/11:00am 29.4 23.3 -8.2 8 15.7 ESE 17 30 9 16 1016.9 1015.3 0.0
18/10:30am 28.9 22.5 -7.1 9 15.3 SE 19 28 10 15 1017.2 1015.6 0.0
18/10:00am 28.4 22.3 -7.5 9 15.0 SE 17 35 9 19 1017.5 1015.9 0.0
18/09:30am 27.0 20.3 -8.5 9 14.4 ESE 20 32 11 17 1017.8 1016.2 0.0
18/09:00am 27.2 20.2 -7.0 10 14.3 ESE 22 30 12 16 1017.9 1016.3 0.0
18/08:30am 26.0 19.5 -7.9 10 13.8 E 19 28 10 15 1018.1 1016.4 0.0
18/08:00am 24.4 19.4 -7.9 11 12.9 E 11 22 6 12 1018.1 1016.4 0.0
18/07:30am 23.3 18.0 -7.7 12 12.3 ESE 13 20 7 11 1017.8 1016.2 0.0
18/07:00am 21.5 16.9 -8.0 13 11.4 SE 9 13 5 7 1017.7 1016.1 0.0
18/06:30am 19.2 15.3 -6.4 17 10.0 SSE 6 9 3 5 1017.4 1015.8 0.0
18/06:00am 15.1 12.6 -4.2 26 7.6 CALM 0 6 0 3 1017.0 1015.4 0.0
18/05:30am 13.5 10.9 -4.6 28 6.9 CALM 0 0 0 0 1016.5 1014.8 0.0
18/05:00am 14.2 11.6 -4.5 27 7.2 CALM 0 0 0 0 1016.1 1014.4 0.0
18/04:30am 14.6 12.0 -4.7 26 7.5 CALM 0 0 0 0 1015.9 1014.2 0.0
18/04:00am 15.1 11.3 -5.9 23 7.9 S 6 7 3 4 1015.7 1014.0 0.0
18/03:30am 16.0 13.3 -5.7 22 8.3 CALM 0 0 0 0 1015.6 1013.9 0.0
18/03:00am 17.5 14.8 -6.3 19 9.2 CALM 0 0 0 0 1015.5 1013.8 0.0
18/02:30am 18.9 14.3 -8.3 15 10.2 SE 9 11 5 6 1015.4 1013.7 0.0
18/02:00am 19.9 14.9 -8.4 14 10.7 SSE 11 13 6 7 1015.6 1013.9 0.0
18/01:30am 20.9 16.3 -8.5 13 11.2 SSE 9 13 5 7 1015.6 1013.9 0.0
18/01:00am 22.1 17.2 -7.6 13 11.7 SSE 11 15 6 8 1015.8 1014.1 0.0
18/12:30am 22.9 17.5 -8.0 12 12.2 SSE 13 19 7 10 1016.0 1014.3 0.0
18/12:00am 23.6 17.5 -7.4 12 12.4 SSE 17 22 9 12 1016.2 1014.5 0.0
 
Date/Time
EST
Temp
°C
App
Temp
°C
Dew
Point
°C
Rel
Hum
%
Delta-T
°C
Wind Press
QNH
hPa
Press
MSL
hPa
Rain since
9am
mm
Dir  Spd
km/h
Gust
km/h
Spd
kts
Gust
kts
17/11:30pm 24.2 17.2 -7.0 12 12.7 SSE 22 28 12 15 1016.3 1014.6 0.0
17/11:00pm 24.8 18.3 -5.5 13 12.7 SSE 20 26 11 14 1016.5 1014.8 0.0
17/10:30pm 25.3 18.5 -5.1 13 12.9 SSE 22 28 12 15 1016.5 1014.8 0.0
17/10:00pm 25.8 19.5 -3.7 14 12.9 SSE 20 26 11 14 1016.4 1014.7 0.0
17/09:30pm 26.1 20.4 -3.5 14 13.1 S 17 20 9 11 1016.2 1014.5 0.0
17/09:00pm 26.8 20.7 -3.9 13 13.5 SSE 19 24 10 13 1016.1 1014.4 0.0
17/08:30pm 27.1 21.8 -3.7 13 13.7 S 15 22 8 12 1015.6 1013.9 0.0
17/08:00pm 27.6 22.7 -3.3 13 13.9 S 13 17 7 9 1015.2 1013.5 0.0
17/07:30pm 28.5 23.6 -3.6 12 14.4 S 13 17 7 9 1014.7 1013.0 0.0
17/07:00pm 29.6 24.3 -3.9 11 15.1 S 15 19 8 10 1014.1 1012.5 0.0
17/06:30pm 31.0 25.4 -2.9 11 15.7 SSW 17 26 9 14 1013.8 1012.2 0.0
17/06:00pm 32.0 25.8 -3.4 10 16.4 SSW 20 32 11 17 1013.5 1011.8 0.0
17/05:30pm 32.7 26.7 -2.9 10 16.7 SSW 19 30 10 16 1013.2 1011.5 0.0
17/05:00pm 33.4 26.2 -2.3 10 17.0 SSW 26 33 14 18 1013.0 1011.3 0.0
17/04:30pm 33.5 27.0 -2.3 10 17.1 SSW 22 37 12 20 1012.8 1011.1 0.0
17/04:00pm 34.0 28.0 -1.9 10 17.3 SSW 20 39 11 21 1012.6 1010.9 0.0
17/03:30pm 34.1 28.1 -1.8 10 17.3 S 20 39 11 21 1012.5 1010.8 0.0
17/03:00pm 34.5 28.5 -1.5 10 17.5 SW 20 33 11 18 1012.5 1010.8 0.0
17/02:30pm 33.9 27.7 -3.4 9 17.5 WSW 20 32 11 17 1012.6 1010.9 0.0
17/02:00pm 33.5 28.0 -2.3 10 17.1 WSW 17 28 9 15 1012.7 1011.0 0.0
17/01:30pm 33.8 27.7 -3.5 9 17.5 SW 19 30 10 16 1013.2 1011.5 0.0
17/01:00pm 34.2 29.3 -3.2 9 17.7 WSW 13 22 7 12 1013.4 1011.7 0.0
17/12:30pm 32.9 26.9 -2.7 10 16.8 SW 19 35 10 19 1014.0 1012.4 0.0
17/12:00pm 32.0 25.9 -2.1 11 16.2 SW 20 32 11 17 1014.6 1012.9 0.0
17/11:30am 31.9 25.8 -3.5 10 16.4 SSW 19 28 10 15 1015.2 1013.5 0.0
17/11:00am 32.6 27.2 -1.7 11 16.4 S 17 26 9 14 1015.4 1013.7 0.0
17/10:30am 32.1 26.2 -2.0 11 16.2 S 19 32 10 17 1015.9 1014.2 0.0
17/10:00am 30.7 25.6 -1.9 12 15.3 SSE 15 24 8 13 1015.7 1014.0 0.0
17/09:30am 30.0 24.8 -2.5 12 15.1 SSE 15 30 8 16 1015.9 1014.2 0.0
17/09:00am 29.6 24.0 -2.8 12 14.9 S 17 28 9 15 1015.7 1014.0 0.0
17/08:30am 28.5 23.3 -2.6 13 14.2 S 15 20 8 11 1015.7 1014.0 0.0
17/08:00am 27.2 22.0 -2.6 14 13.5 S 15 22 8 12 1015.8 1014.1 0.0
17/07:30am 25.6 20.0 -2.9 15 12.7 S 17 20 9 11 1015.6 1013.9 0.0
17/07:00am 23.2 18.5 -1.7 19 11.1 S 13 17 7 9 1015.5 1013.8 0.0
17/06:30am 21.4 18.0 -0.6 23 9.9 SSW 7 11 4 6 1015.2 1013.5 0.0
17/06:00am 19.4 16.0 -1.7 24 9.1 SSE 6 9 3 5 1015.0 1013.3 0.0
17/05:30am 18.5 14.2 -1.3 26 8.5 S 11 15 6 8 1014.9 1013.2 0.0
17/05:00am 18.3 13.3 -1.0 27 8.4 S 15 22 8 12 1014.3 1012.7 0.0
17/04:30am 16.2 14.1 -0.5 32 7.2 CALM 0 0 0 0 1013.5 1011.8 0.0
17/04:00am 16.4 14.3 -0.8 31 7.4 CALM 0 0 0 0 1013.4 1011.7 0.0
17/03:30am 17.0 14.9 -0.7 30 7.6 CALM 0 0 0 0 1013.3 1011.6 0.0
17/03:00am 17.5 14.0 -1.2 28 8.0 SE 7 7 4 4 1013.3 1011.6 0.0
17/02:30am 17.9 15.7 -1.3 27 8.2 CALM 0 0 0 0 1013.3 1011.6 0.0
17/02:00am 18.5 16.3 -1.9 25 8.7 CALM 0 0 0 0 1013.3 1011.6 0.0
17/01:30am 19.2 16.6 -1.8 24 9.0 SE 2 7 1 4 1013.5 1011.8 0.0
17/01:00am 19.7 16.2 -1.4 24 9.2 SSE 7 9 4 5 1013.8 1012.2 0.0
17/12:30am 19.8 16.2 -1.9 23 9.4 S 7 9 4 5 1013.8 1012.2 0.0
17/12:00am 20.6 18.3 -2.5 21 9.9 CALM 0 0 0 0 1014.0 1012.4 0.0
 
Date/Time
EST
Temp
°C
App
Temp
°C
Dew
Point
°C
Rel
Hum
%
Delta-T
°C
Wind Press
QNH
hPa
Press
MSL
hPa
Rain since
9am
mm
Dir  Spd
km/h
Gust
km/h
Spd
kts
Gust
kts
16/11:30pm 21.5 18.1 -1.7 21 10.2 SSW 6 7 3 4 1014.1 1012.5 0.0
16/11:00pm 22.2 18.5 -2.5 19 10.8 S 7 9 4 5 1014.0 1012.4 0.0
16/10:30pm 23.1 19.4 -3.3 17 11.4 SE 7 9 4 5 1013.8 1012.2 0.0
16/10:00pm 24.9 21.1 -3.5 15 12.4 S 7 9 4 5 1013.6 1012.0 0.0
16/09:30pm 26.6 22.4 -4.0 13 13.5 S 9 11 5 6 1013.3 1011.6 0.0
16/09:00pm 28.2 23.6 -3.9 12 14.3 S 11 13 6 7 1013.0 1011.3 0.0
16/08:30pm 29.0 24.1 -3.2 12 14.6 SSW 13 15 7 8 1012.7 1011.0 0.0
16/08:00pm 27.3 23.5 -3.5 13 13.7 S 7 9 4 5 1012.5 1010.8 0.0
16/07:30pm 29.5 25.3 -4.0 11 15.1 S 9 11 5 6 1012.3 1010.6 0.0
16/07:00pm 31.8 27.3 -3.5 10 16.3 SSW 11 15 6 8 1012.1 1010.4 0.0
16/06:30pm 33.8 28.9 -3.5 9 17.5 SSW 13 19 7 10 1011.7 1010.0 0.0
16/06:00pm 35.2 30.2 -4.0 8 18.4 SSW 13 24 7 13 1011.3 1009.6 0.0
16/05:30pm 35.8 30.5 -3.5 8 18.7 WSW 15 22 8 12 1010.8 1009.2 0.0
16/05:00pm 35.9 31.6 -5.2 7 19.1 WSW 9 17 5 9 1010.8 1009.2 0.0
16/04:30pm 36.1 31.0 -5.1 7 19.1 W 13 22 7 12 1010.6 1008.9 0.0
16/04:00pm 36.4 30.2 -4.9 7 19.3 W 19 26 10 14 1010.8 1009.2 0.0
16/03:30pm 36.4 31.7 -4.9 7 19.3 WSW 11 20 6 11 1010.8 1009.2 0.0
16/03:00pm 35.4 31.0 -5.6 7 18.8 SSE 9 19 5 10 1010.9 1009.3 0.0
16/02:30pm 36.7 30.7 -2.9 8 19.1 SW 19 32 10 17 1011.3 1009.6 0.0
16/02:00pm 35.7 30.4 -3.6 8 18.7 SW 15 24 8 13 1011.8 1010.1 0.0
16/01:30pm 34.9 29.5 -4.2 8 18.3 WNW 15 30 8 16 1012.4 1010.7 0.0
16/01:00pm 35.7 31.9 -3.6 8 18.7 WSW 7 13 4 7 1012.7 1011.0 0.0
16/12:30pm 34.3 29.8 -3.1 9 17.7 NW 11 17 6 9 1013.3 1011.6 0.0
16/12:00pm 34.6 30.1 -2.9 9 17.9 NNE 11 17 6 9 1013.6 1012.0 0.0
16/11:30am 34.0 30.4 -1.9 10 17.3 NW 7 15 4 8 1014.0 1012.4 0.0
16/11:00am 33.7 30.1 -2.1 10 17.2 E 7 24 4 13 1014.4 1012.8 0.0
16/10:30am 33.7 30.3 -0.8 11 16.9 SSE 7 13 4 7 1014.8 1013.1 0.0
16/10:00am 32.0 26.9 -2.1 11 16.2 SSE 15 28 8 15 1015.1 1013.4 0.0
16/09:30am 32.3 28.0 -1.9 11 16.3 ESE 11 19 6 10 1015.4 1013.7 0.0
16/09:00am 30.6 27.2 -0.9 13 15.1 SW 7 11 4 6 1015.4 1013.7 0.0
16/08:30am 29.6 25.7 -1.7 13 14.7 ESE 9 15 5 8 1015.5 1013.8 0.0
16/08:00am 27.8 24.4 -2.1 14 13.7 SSE 6 9 3 5 1015.5 1013.8 0.0
16/07:30am 25.6 21.5 -2.9 15 12.7 S 9 11 5 6 1015.3 1013.6 0.0
16/07:00am 23.8 20.2 -1.9 18 11.5 S 7 11 4 6 1015.2 1013.5 0.0
16/06:30am 20.6 17.0 -1.8 22 9.8 SSW 7 11 4 6 1014.9 1013.2 0.0
16/06:00am 16.8 13.5 -0.9 30 7.6 SSW 6 9 3 5 1014.7 1013.0 0.0
16/05:30am 14.9 12.5 0.0 36 6.4 SW 2 7 1 4 1014.4 1012.8 0.0
16/05:00am 15.2 13.2 -0.1 35 6.6 CALM 0 0 0 0 1013.7 1012.1 0.0
16/04:30am 15.3 13.2 -0.9 33 6.8 CALM 0 0 0 0 1013.3 1011.6 0.0
16/04:00am 15.8 13.7 -0.8 32 7.1 CALM 0 0 0 0 1013.1 1011.4 0.0
16/03:30am 16.3 14.1 -1.3 30 7.4 CALM 0 0 0 0 1012.9 1011.2 0.0
16/03:00am 16.7 14.5 -1.4 29 7.7 CALM 0 0 0 0 1012.9 1011.2 0.0
16/02:30am 17.2 15.0 -1.4 28 7.9 CALM 0 0 0 0 1013.1 1011.4 0.0
16/02:00am 17.6 15.3 -2.1 26 8.3 CALM 0 0 0 0 1013.2 1011.5 0.0
16/01:30am 18.0 15.3 -2.8 24 8.7 SE 2 6 1 3 1013.3 1011.6 0.0
16/01:00am 18.4 16.0 -3.1 23 8.9 CALM 0 0 0 0 1013.3 1011.6 0.0
16/12:30am 19.1 15.4 -4.4 20 9.6 SE 6 7 3 4 1013.4 1011.7 0.0
16/12:00am 19.6 16.0 -3.9 20 9.7 SSE 6 7 3 4 1013.5 1011.8 0.0
 
Date/Time
EST
Temp
°C
App
Temp
°C
Dew
Point
°C
Rel
Hum
%
Delta-T
°C
Wind Press
QNH
hPa
Press
MSL
hPa
Rain since
9am
mm
Dir  Spd
km/h
Gust
km/h
Spd
kts
Gust
kts
15/11:30pm 20.6 16.7 -4.5 18 10.4 SE 7 9 4 5 1013.5 1011.8 0.0
15/11:00pm 20.5 16.2 -4.6 18 10.3 SSE 9 11 5 6 1013.5 1011.8 0.0
15/10:30pm 21.4 17.8 -3.9 18 10.6 SSE 6 7 3 4 1013.6 1012.0 0.0
15/10:00pm 21.5 17.6 -4.5 17 10.8 SSW 7 9 4 5 1013.4 1011.7 0.0
15/09:30pm 22.4 18.1 -4.6 16 11.3 S 9 9 5 5 1013.1 1011.4 0.0
15/09:00pm 23.6 19.2 -5.4 14 12.1 S 9 9 5 5 1012.8 1011.1 0.0
15/08:30pm 25.4 21.0 -6.0 12 13.2 S 9 11 5 6 1012.5 1010.8 0.0
15/08:00pm 27.5 23.1 -5.6 11 14.3 S 9 11 5 6 1012.2 1010.5 0.0
15/07:30pm 29.2 24.3 -6.9 9 15.4 S 11 15 6 8 1011.9 1010.2 0.0
15/07:00pm 30.7 25.5 -5.8 9 16.1 SSW 13 19 7 10 1011.7 1010.0 0.0
15/06:30pm 32.1 26.1 -6.3 8 17.0 SSW 17 24 9 13 1011.3 1009.6 0.0
15/06:00pm 33.8 29.1 -5.0 8 17.8 SW 11 22 6 12 1010.8 1009.2 0.0
15/05:30pm 34.0 28.2 -4.9 8 17.9 SW 17 22 9 12 1010.5 1008.8 0.0
15/05:00pm 34.7 30.4 -4.4 8 18.2 SW 9 19 5 10 1010.3 1008.6 0.0
15/04:30pm 35.0 30.0 -4.1 8 18.3 WSW 13 26 7 14 1010.2 1008.5 0.0
15/04:00pm 34.6 29.2 -4.4 8 18.2 W 15 26 8 14 1010.3 1008.6 0.0
15/03:30pm 34.6 30.3 -4.4 8 18.1 WNW 9 22 5 12 1010.4 1008.7 0.0
15/03:00pm 34.3 29.3 -4.6 8 18.0 WSW 13 26 7 14 1010.6 1008.9 0.0

Other formats

Comma delimited format used in spreadsheet applications
http://www.bom.gov.au/fwo/IDQ60801/IDQ60801.94510.axf

JavaScript Object Notation format (JSON) in row-major order
http://www.bom.gov.au/fwo/IDQ60801/IDQ60801.94510.json

Data quality

Most of these data are generated automatically and are frequently updated. Quality checks on data are not normally performed. It is possible for incorrect values to appear. Refer to information at About Latest Weather Observations and please check the disclaimer before using these data.